• Join FlightAware (Why Join?)
  • Login
  • US Flag 
07:44AM EDT


 

Airport Tracker/Info


-or-


 

Live Flight TrackerFlight Track Log ✈ UAL5914 ✈ 25-Sep-2013 ✈ KORD - KTYS

Flight Track Log - Related Links

Times and Time Zones

All times are in EDT time to prevent confusion due to time zone crossing. See the UAL5914 flight status page for this flight to view local times or setup timezone preferences in your user account.

Time Position Orientation Groundspeed Altitude Reporting Facility
EDT Latitude Longitude Course Direction KTS MPH feet Rate Location/Type
09:29PM 41.9833 -87.8167 169° South 196 226 3,200  Level Chicago TRACON
09:30PM 41.9167 -87.7667 151° Southeast 263 303 5,200 1,920 Climbing Chicago TRACON
09:31PM 41.6829 -87.6984 156° South  Level Estimated
09:32PM 41.5832 -87.6294 173° South  Level Estimated
09:32PM 41.8197 -87.7681 181° South 270 311 8,000  Level Chicago Center
09:33PM 41.4836 -87.5607 180° South  Level Estimated
09:33PM 41.7428 -87.7644 178° South 275 316 10,000  Level Chicago Center
09:34PM 41.3876 -87.4947 169° South  Level Estimated
09:34PM 41.6644 -87.7325 163° South 296 341 11,700  Level Chicago Center
09:35PM 41.5881 -87.6825 154° Southeast 304 350 13,600 1,680 Climbing Chicago Center
09:36PM 41.5117 -87.6306 153° Southeast 306 352 15,200 1,320 Climbing Chicago Center
09:37PM 41.4108 -87.5667 155° Southeast 330 380 16,400 1,080 Climbing Chicago Center
09:38PM 41.3219 -87.5086 154° Southeast 350 403 17,500 1,020 Climbing Chicago Center
09:39PM 41.2300 -87.4511 155° Southeast 361 415 18,600 960 Climbing Chicago Center
09:40PM 41.1281 -87.4044 161° South 386 444 19,600 960 Climbing Chicago Center
09:41PM 41.0258 -87.3586 161° South 390 449 20,600 1,380 Climbing Chicago Center
09:42PM 40.9233 -87.3128 161° South 390 449 22,500 1,980 Climbing Chicago Center
09:43PM 40.8064 -87.2622 162° South 373 429 24,800 1,800 Climbing Chicago Center
09:44PM 40.7142 -87.2203 161° South 356 410 26,300 1,200 Climbing Chicago Center
09:45PM 40.6192 -87.1792 162° South 360 414 27,400 960 Climbing Chicago Center
09:46PM 40.5197 -87.1347 161° South 375 432 28,400 900 Climbing Chicago Center
09:47PM 40.4206 -87.0914 162° South 385 443 29,300 1,020 Climbing Chicago Center
09:48PM 40.2958 -87.0369 162° South 398 458 30,600 1,020 Climbing Chicago Center
09:49PM 40.1906 -86.9889 161° South 402 463 31,500 900 Climbing Chicago Center
09:50PM 40.0875 -86.9222 154° Southeast 414 476 32,500 840 Climbing Chicago Center
09:51PM 40.0261 -86.8764 150° Southeast 415 478 33,000 300 Climbing Indianapolis Center
09:52PM 39.9206 -86.8003 151° Southeast 433 498 33,000  Level Indianapolis Center
09:53PM 39.8086 -86.7181 151° Southeast 462 532 33,000  Level Indianapolis Center
09:54PM 39.6667 -86.6161 151° Southeast 489 563 33,000  Level Indianapolis Center
09:55PM 39.5533 -86.5119 145° Southeast 507 583 33,000  Level Indianapolis Center
09:56PM 39.4517 -86.3911 137° Southeast 507 583 33,000  Level Indianapolis Center
09:57PM 39.3469 -86.2728 139° Southeast 507 583 33,000  Level Indianapolis Center
09:58PM 39.2225 -86.1869 152° Southeast 507 583 33,000  Level Indianapolis Center
09:59PM 39.0969 -86.1019 152° Southeast 511 588 33,000  Level Indianapolis Center
10:00PM 38.9436 -85.9989 152° Southeast 518 596 33,000  Level Indianapolis Center
10:01PM 38.8303 -85.9231 152° Southeast 520 598 33,000  Level Indianapolis Center
10:02PM 38.6861 -85.8261 152° Southeast 524 603 33,000  Level Indianapolis Center
10:03PM 38.5686 -85.7481 153° Southeast 525 604 33,000  Level Indianapolis Center
10:04PM 38.4094 -85.6425 153° Southeast 532 612 33,000  Level Indianapolis Center
10:05PM 38.2808 -85.5583 153° Southeast 521 600 33,000  Level Indianapolis Center
10:06PM 38.1478 -85.4714 153° Southeast 530 610 33,000 -60 Level Indianapolis Center
10:07PM 38.0192 -85.3836 152° Southeast 524 603 32,900 -540 Descending Indianapolis Center
10:08PM 37.8900 -85.2994 153° Southeast 520 598 32,000 -900 Descending Indianapolis Center
10:09PM 37.7594 -85.2167 153° Southeast 518 596 31,100 -540 Descending Indianapolis Center
10:10PM 37.6325 -85.1369 154° Southeast 515 593 31,000 -60 Descending Indianapolis Center
10:11PM 37.5064 -85.0542 152° Southeast 513 590 31,000 -300 Level Indianapolis Center
10:12PM 37.3778 -84.9733 153° Southeast 515 593 30,500 -900 Descending Indianapolis Center
10:13PM 37.2314 -84.8789 153° Southeast 507 583 29,200 -1,380 Descending Indianapolis Center
10:14PM 37.1061 -84.7997 153° Southeast 506 582 27,700 -1,740 Descending Indianapolis Center
10:15PM 36.9711 -84.7142 153° Southeast 514 592 25,700 -1,920 Descending Indianapolis Center
10:16PM 36.8439 -84.6342 153° Southeast 513 590 23,800 -2,400 Descending Indianapolis Center
10:17PM 36.7239 -84.5589 153° Southeast 490 564 20,900 -2,760 Descending Indianapolis Center
10:18PM 36.6194 -84.4931 153° Southeast 455 524 18,200 -2,640 Descending Indianapolis Center
10:19PM 36.5142 -84.4283 154° Southeast 431 496 15,600 -2,760 Descending Indianapolis Center
10:20PM 36.4069 -84.3611 153° Southeast 409 471 12,700 -2,280 Descending Indianapolis Center
10:21PM 36.3122 -84.3025 153° Southeast 387 445 11,000 -840 Descending Indianapolis Center
10:23PM 36.2211 -84.2467 154° Southeast 370 426 11,000 -300 Level Indianapolis Center
10:24PM 36.1319 -84.2311 172° South 328 377 10,500 -1,080 Descending Indianapolis Center
10:24PM 36.0872 -84.2314 180° South 323 372 9,400 -2,220 Descending Atlanta Center
10:25PM 36.0103 -84.2211 174° South 303 349 7,200 -1,800 Descending Atlanta Center
10:26PM 35.9539 -84.2183 178° South 277 319 5,800 -1,680 Descending Atlanta Center
10:27PM 35.8789 -84.2131 177° South 262 302 3,900 -1,320 Descending Atlanta Center
10:28PM 35.8142 -84.2181 184° South 244 281 3,200 -360 Descending Atlanta Center
10:29PM 35.7536 -84.2256 186° South 234 269 3,200 -120 Level Atlanta Center
10:30PM 35.7036 -84.1947 153° Southeast 203 234 3,000 -120 Descending Atlanta Center
10:31PM 35.7100 -84.1256 83° East 151 174 3,000  Level Atlanta Center